Darstellungsparameter: Aktuell verwendete Einstellungen:
Skalierung der Graphiken ... ?
xyx+y,   Skalierungsfaktor:      Skalierung: Modus: x, Faktor: 1
Darstellungszeitraum ... ?
Vom - - bis: - -   Zeitraum: 25.04.2011 - 25.04.2011
Min/Max/Avg-Anzeige ... ?
Zeige MMA aktuell
Zeige MMA Monat
Zeige MMA alles
Zeige --A aktuell
Zeige --A Monat
Zeige --A alles
Keine MMA-Anzeige
MMA:
Keine MMA-Graphiken
MMA-Basis: 25.04.2011 - 25.04.2011
Quicknavigation für Darstellung... ?
Tage:      1T, 2T, 3T, 5T -1T -2T -3T -5T +1T +2T +3T +5T
Wochen: 1W, 2W, 3W -1W -2W -3W +1W +2W +3W
Monate: 1M, 3M, 6M -1M -3M -6M +1M +3M +6M
Jahre:    1J, 3J, 5J, 10J -1J -3J -5J -10J +1J +3J +5J +10J
Nutze für die Darstellung ... ?
Originaldaten oder Mittelwerte auf ...
Stundenbasis Tagesbasis Wochenbasis
Monatsbasis Jahresbasis      Datenbasis: Original-Daten
Darstellen als:
Statistik (Auto) Statistik J:M      Darstellung:
Zur Graphik,    zurück zur Übersicht aller Sensoren.
 
Tabellarische Datenbersicht: ?
 
Sensor: Nr:Datum:Temp:Abs-Feuchte:Windchill:Wind:
Aussen-T/F 1 25-04-2011 00:06:29 15.5 C 4.36 g/m*3 15.5 C 0 km/h
2 25-04-2011 00:18:30 15.6 C 4.26 g/m*3 15.6 C 0 km/h
3 25-04-2011 00:30:30 14.5 C 4.6 g/m*3 14.5 C 0 km/h
4 25-04-2011 00:42:30 14.3 C 4.55 g/m*3 14.3 C 0 km/h
5 25-04-2011 00:54:30 14 C 4.46 g/m*3 14 C 0 km/h
6 25-04-2011 01:06:30 14 C 4.7 g/m*3 14 C 0 km/h
7 25-04-2011 01:18:30 13.1 C 4.79 g/m*3 13.1 C 0 km/h
8 25-04-2011 01:30:30 12.5 C 5.06 g/m*3 12.5 C 0 km/h
9 25-04-2011 01:42:30 12.2 C 5.07 g/m*3 12.2 C 0 km/h
10 25-04-2011 01:54:30 12 C 5.01 g/m*3 12 C 0 km/h
11 25-04-2011 02:06:30 11.8 C 4.84 g/m*3 11.8 C 0 km/h
12 25-04-2011 02:18:30 11.6 C 4.99 g/m*3 11.6 C 0 km/h
13 25-04-2011 02:30:30 11.3 C 5 g/m*3 11.3 C 0 km/h
14 25-04-2011 02:42:30 10.8 C 5.04 g/m*3 10.8 C 0 km/h
15 25-04-2011 02:54:30 10.7 C 5.11 g/m*3 10.7 C 0 km/h
16 25-04-2011 03:06:30 10.5 C 5.14 g/m*3 10.5 C 0 km/h
17 25-04-2011 03:18:30 10.3 C 5.17 g/m*3 10.3 C 0 km/h
18 25-04-2011 03:30:30 10 C 5.07 g/m*3 10 C 0 km/h
19 25-04-2011 03:42:30 9.5 C 5.1 g/m*3 9.5 C 0 km/h
20 25-04-2011 03:54:30 9.4 C 5.25 g/m*3 9.4 C 0 km/h
21 25-04-2011 04:06:30 8.8 C 5.14 g/m*3 8.8 C 0 km/h
22 25-04-2011 04:18:30 8.4 C 5.34 g/m*3 8.4 C 0 km/h
23 25-04-2011 04:30:31 8.1 C 5.33 g/m*3 8.1 C 0 km/h
24 25-04-2011 04:42:31 7.8 C 5.47 g/m*3 7.8 C 0 km/h
25 25-04-2011 04:54:31 7.5 C 5.44 g/m*3 7.5 C 0 km/h
Sensor: Nr:Datum:Temp:Abs-Feuchte:Windchill:Wind:
Aussen-T/F 26 25-04-2011 05:06:31 7.3 C 5.45 g/m*3 7.3 C 0 km/h
27 25-04-2011 05:18:31 7.1 C 5.46 g/m*3 7.1 C 0 km/h
28 25-04-2011 05:30:31 6.9 C 5.54 g/m*3 6.9 C 0 km/h
29 25-04-2011 05:42:31 6.8 C 5.58 g/m*3 6.8 C 0 km/h
30 25-04-2011 05:54:31 6.6 C 5.59 g/m*3 6.6 C 0 km/h
31 25-04-2011 06:06:31 6.4 C 5.51 g/m*3 6.4 C 0 km/h
32 25-04-2011 06:18:31 6.3 C 5.63 g/m*3 6.3 C 0 km/h
33 25-04-2011 06:30:31 6.3 C 5.77 g/m*3 6.3 C 0 km/h
34 25-04-2011 06:42:31 6.2 C 5.74 g/m*3 6.2 C 0 km/h
35 25-04-2011 06:54:31 6.1 C 5.7 g/m*3 6.1 C 0 km/h
36 25-04-2011 07:06:31 6.1 C 5.77 g/m*3 6.1 C 0 km/h
37 25-04-2011 07:18:31 6 C 5.81 g/m*3 6 C 0 km/h
38 25-04-2011 07:30:31 6.1 C 5.92 g/m*3 6.1 C 0 km/h
39 25-04-2011 07:42:31 6.3 C 6.07 g/m*3 6.3 C 0 km/h
40 25-04-2011 07:54:31 6.5 C 6.22 g/m*3 6.5 C 0 km/h
41 25-04-2011 08:06:31 6.7 C 6.31 g/m*3 6.7 C 0 km/h
42 25-04-2011 08:18:31 7 C 6.43 g/m*3 7 C 0 km/h
43 25-04-2011 08:30:32 7.3 C 6.56 g/m*3 7.3 C 0 km/h
44 25-04-2011 08:42:32 7.6 C 6.69 g/m*3 7.6 C 0 km/h
45 25-04-2011 08:54:01 8 C 6.78 g/m*3 8 C 0 km/h
46 25-04-2011 09:06:02 8.3 C 6.91 g/m*3 8.3 C 0 km/h
47 25-04-2011 09:18:02 8.7 C 7.09 g/m*3 8.7 C 0 km/h
48 25-04-2011 09:30:02 9.3 C 7.19 g/m*3 9.3 C 0 km/h
49 25-04-2011 09:42:01 9.9 C 7.28 g/m*3 9.9 C 0 km/h
50 25-04-2011 09:54:02 10.5 C 7.27 g/m*3 10.5 C 0 km/h
Sensor: Nr:Datum:Temp:Abs-Feuchte:Windchill:Wind:
Aussen-T/F 51 25-04-2011 10:06:01 11.2 C 7.4 g/m*3 11.2 C 0 km/h
52 25-04-2011 10:18:02 12.1 C 7.29 g/m*3 12.1 C 0 km/h
53 25-04-2011 10:30:02 12.9 C 7.21 g/m*3 12.9 C 0 km/h
54 25-04-2011 10:42:01 13.6 C 7.3 g/m*3 13.6 C 0 km/h
55 25-04-2011 10:54:02 14.1 C 6.67 g/m*3 14.1 C 0 km/h
56 25-04-2011 11:06:01 14.7 C 6.8 g/m*3 14.7 C 0 km/h
57 25-04-2011 11:18:02 15.8 C 5.79 g/m*3 15.8 C 0 km/h
58 25-04-2011 11:30:02 16.5 C 5.9 g/m*3 16.5 C 0 km/h
59 25-04-2011 11:42:01 17.1 C 4.66 g/m*3 17.1 C 0 km/h
60 25-04-2011 11:54:03 17.5 C 4.47 g/m*3 17.5 C 0 km/h
61 25-04-2011 12:06:02 18.3 C 3.91 g/m*3 18.3 C 0 km/h
62 25-04-2011 12:18:03 18.6 C 4.14 g/m*3 18.6 C 0 km/h
63 25-04-2011 12:30:03 18.8 C 3.87 g/m*3 18.8 C 0 km/h
64 25-04-2011 12:42:02 19.1 C 3.77 g/m*3 19.1 C 0 km/h
65 25-04-2011 12:54:02 19.4 C 3.34 g/m*3 19.4 C 0 km/h
66 25-04-2011 13:06:02 20 C 3.46 g/m*3 20 C 0 km/h
67 25-04-2011 13:18:03 20.2 C 3.5 g/m*3 20.2 C 0 km/h
68 25-04-2011 13:30:03 20.4 C 3.54 g/m*3 20.4 C 0 km/h
69 25-04-2011 13:42:02 21.4 C 3.75 g/m*3 21.4 C 0 km/h
70 25-04-2011 13:54:02 25.8 C 4.82 g/m*3 25.8 C 0 km/h
71 25-04-2011 14:06:02 26.6 C 5.03 g/m*3 26.6 C 0 km/h
72 25-04-2011 14:18:02 26.9 C 5.12 g/m*3 26.9 C 0 km/h
73 25-04-2011 14:30:02 27.2 C 5.2 g/m*3 27.2 C 0 km/h
74 25-04-2011 14:42:02 28.8 C 5.68 g/m*3 28.8 C 0 km/h
75 25-04-2011 14:54:02 28.8 C 5.68 g/m*3 28.8 C 0 km/h
Sensor: Nr:Datum:Temp:Abs-Feuchte:Windchill:Wind:
Aussen-T/F 76 25-04-2011 15:06:02 29.3 C 5.84 g/m*3 29.3 C 0 km/h
77 25-04-2011 15:18:02 29.7 C 5.97 g/m*3 29.7 C 0 km/h
78 25-04-2011 15:30:02 29.7 C 5.97 g/m*3 29.7 C 0 km/h
79 25-04-2011 15:42:02 29.8 C 6 g/m*3 29.8 C 0 km/h
80 25-04-2011 15:54:01 28.7 C 5.65 g/m*3 28.7 C 0 km/h
81 25-04-2011 16:06:02 29.9 C 6.03 g/m*3 29.9 C 0 km/h
82 25-04-2011 16:18:01 28.6 C 5.62 g/m*3 28.6 C 0 km/h
83 25-04-2011 16:30:01 29.8 C 6 g/m*3 29.8 C 0 km/h
84 25-04-2011 16:42:01 29.2 C 5.81 g/m*3 29.2 C 0 km/h
85 25-04-2011 16:54:01 29.6 C 5.94 g/m*3 29.6 C 0 km/h
86 25-04-2011 17:06:02 29.7 C 5.97 g/m*3 29.7 C 0 km/h
87 25-04-2011 17:18:01 28 C 5.44 g/m*3 28 C 0 km/h
88 25-04-2011 17:30:01 30 C 6.06 g/m*3 30 C 0 km/h
89 25-04-2011 17:42:01 28.9 C 5.71 g/m*3 28.9 C 0 km/h
90 25-04-2011 17:54:01 29 C 5.74 g/m*3 29 C 0 km/h
91 25-04-2011 18:06:02 28.8 C 5.68 g/m*3 28.8 C 0 km/h
92 25-04-2011 18:18:02 27.8 C 5.38 g/m*3 27.8 C 0 km/h
93 25-04-2011 18:30:02 27.6 C 5.32 g/m*3 27.6 C 0 km/h
94 25-04-2011 18:42:01 27.5 C 5.29 g/m*3 27.5 C 0 km/h
95 25-04-2011 18:54:01 26.4 C 4.98 g/m*3 26.4 C 0 km/h
96 25-04-2011 19:06:01 26.3 C 4.95 g/m*3 26.3 C 0 km/h
97 25-04-2011 19:18:02 25.2 C 4.66 g/m*3 25.2 C 0 km/h
98 25-04-2011 19:30:02 22.2 C 3.93 g/m*3 22.2 C 0 km/h
99 25-04-2011 19:42:02 20.4 C 4.6 g/m*3 20.4 C 0 km/h
100 25-04-2011 19:54:02 19.5 C 4.36 g/m*3 19.5 C 0 km/h
Sensor: Nr:Datum:Temp:Abs-Feuchte:Windchill:Wind:
Aussen-T/F 101 25-04-2011 20:06:03 17.5 C 5.67 g/m*3 17.5 C 0 km/h
102 25-04-2011 20:18:02 16.5 C 5.48 g/m*3 16.5 C 0 km/h
103 25-04-2011 20:30:02 15.8 C 5.38 g/m*3 15.8 C 0 km/h
104 25-04-2011 20:42:02 15.4 C 5.26 g/m*3 15.4 C 0 km/h
105 25-04-2011 20:54:02 14.7 C 5.16 g/m*3 14.7 C 0 km/h
106 25-04-2011 21:06:02 14.6 C 5.13 g/m*3 14.6 C 0 km/h
107 25-04-2011 21:18:01 14.5 C 5.1 g/m*3 14.5 C 0 km/h
108 25-04-2011 21:30:01 14 C 4.95 g/m*3 14 C 0 km/h
109 25-04-2011 21:42:02 13.6 C 5.06 g/m*3 13.6 C 0 km/h
110 25-04-2011 21:54:02 13.6 C 5.06 g/m*3 13.6 C 0 km/h
111 25-04-2011 22:07:03 13.4 C 5.11 g/m*3 13.4 C 0 km/h
112 25-04-2011 22:19:03 12.9 C 5.3 g/m*3 12.9 C 0 km/h
113 25-04-2011 22:31:03 12.8 C 5.26 g/m*3 12.8 C 0 km/h
114 25-04-2011 22:43:03 12.9 C 5.3 g/m*3 12.9 C 0 km/h
115 25-04-2011 22:55:03 13 C 5.22 g/m*3 13 C 0 km/h
116 25-04-2011 23:07:03 12.5 C 5.28 g/m*3 12.5 C 0 km/h
117 25-04-2011 23:19:03 12 C 5.12 g/m*3 12 C 0 km/h
118 25-04-2011 23:31:04 11.9 C 5.3 g/m*3 11.9 C 0 km/h
119 25-04-2011 23:43:04 11.9 C 5.4 g/m*3 11.9 C 0 km/h
120 25-04-2011 23:55:04 11.6 C 5.3 g/m*3 11.6 C 0 km/h

Legende:
   Min
   Max


Maximal/Minimal-Werte vom 25.04.2011 - 25.04.2011

Sensor Min Max Avg
Temp
(Aussen-T/F)
6 °C
25-04-2011  07:18:31
30 °C
25-04-2011  17:30:01
15.98 °C
Abs-Feuchte
(Aussen-T/F)
3.34 g/m*3
25-04-2011  12:54:02
7.4 g/m*3
25-04-2011  10:06:01
5.36 g/m*3
Windchill
(Aussen-T/F)
6 C
25-04-2011  07:18:31
30 C
25-04-2011  17:30:01
15.84 C

Die Daten stammen von einer Davis Vantage Pro 2 Wetter-Station und werden unter Linux mit der Software wview2wettercgi und aufbereitet. Alle Angaben erfolgen ohne Gewähr für ihre Vollständigkeit oder Richtigkeit.
Kontakt: Rainer Krienke krienke@uni-koblenz.de . Meine Webseiten an der Uni Koblenz oder privat.
Version: $Revision: 0.78 $